sensor_id;sensor_type;location;lat;lon;timestamp;pressure;altitude;pressure_sealevel;temperature;humidity
10460;BME280;54412;51.206;6.888;2024-03-22T00:01:52;101488.56;;;13.08;82.67
10460;BME280;54412;51.206;6.888;2024-03-22T00:04:18;101491.75;;;12.96;84.37
10460;BME280;54412;51.206;6.888;2024-03-22T00:06:46;101479.22;;;13.00;83.75
10460;BME280;54412;51.206;6.888;2024-03-22T00:09:13;101485.41;;;13.19;82.45
10460;BME280;54412;51.206;6.888;2024-03-22T00:11:41;101486.97;;;13.04;83.14
10460;BME280;54412;51.206;6.888;2024-03-22T00:14:08;101487.41;;;13.14;83.11
10460;BME280;54412;51.206;6.888;2024-03-22T00:16:35;101482.41;;;13.08;83.01
10460;BME280;54412;51.206;6.888;2024-03-22T00:19:01;101477.53;;;13.17;82.72
10460;BME280;54412;51.206;6.888;2024-03-22T00:21:27;101470.53;;;13.16;82.75
10460;BME280;54412;51.206;6.888;2024-03-22T00:23:53;101471.88;;;13.06;83.41
10460;BME280;54412;51.206;6.888;2024-03-22T00:26:19;101471.78;;;13.08;83.57
10460;BME280;54412;51.206;6.888;2024-03-22T00:28:45;101470.88;;;13.09;83.61
10460;BME280;54412;51.206;6.888;2024-03-22T00:31:10;101472.16;;;13.19;83.23
10460;BME280;54412;51.206;6.888;2024-03-22T00:33:36;101471.28;;;13.37;82.24
10460;BME280;54412;51.206;6.888;2024-03-22T00:36:02;101462.00;;;13.28;82.31
10460;BME280;54412;51.206;6.888;2024-03-22T00:38:28;101458.00;;;13.20;82.94
10460;BME280;54412;51.206;6.888;2024-03-22T00:40:54;101449.47;;;13.13;83.24
10460;BME280;54412;51.206;6.888;2024-03-22T00:43:20;101449.16;;;13.01;84.17
10460;BME280;54412;51.206;6.888;2024-03-22T00:45:47;101440.97;;;13.07;83.88
10460;BME280;54412;51.206;6.888;2024-03-22T00:48:13;101442.56;;;13.28;83.19
10460;BME280;54412;51.206;6.888;2024-03-22T00:50:39;101433.56;;;13.13;83.61
10460;BME280;54412;51.206;6.888;2024-03-22T00:53:04;101427.50;;;13.11;83.35
10460;BME280;54412;51.206;6.888;2024-03-22T00:55:31;101425.31;;;13.02;83.70
10460;BME280;54412;51.206;6.888;2024-03-22T00:57:57;101426.34;;;13.17;83.04
10460;BME280;54412;51.206;6.888;2024-03-22T01:00:24;101417.47;;;12.81;85.32
10460;BME280;54412;51.206;6.888;2024-03-22T01:02:50;101425.56;;;12.96;84.43
10460;BME280;54412;51.206;6.888;2024-03-22T01:05:17;101422.50;;;13.05;84.02
10460;BME280;54412;51.206;6.888;2024-03-22T01:07:43;101419.78;;;13.07;84.15
10460;BME280;54412;51.206;6.888;2024-03-22T01:10:11;101410.06;;;13.07;83.75
10460;BME280;54412;51.206;6.888;2024-03-22T01:12:37;101413.09;;;12.98;84.55
10460;BME280;54412;51.206;6.888;2024-03-22T01:15:06;101413.19;;;12.97;84.34
10460;BME280;54412;51.206;6.888;2024-03-22T01:17:32;101412.22;;;12.98;83.86
10460;BME280;54412;51.206;6.888;2024-03-22T01:19:58;101404.81;;;12.87;84.44
10460;BME280;54412;51.206;6.888;2024-03-22T01:22:23;101401.25;;;13.07;84.16
10460;BME280;54412;51.206;6.888;2024-03-22T01:24:49;101402.03;;;13.09;83.74
10460;BME280;54412;51.206;6.888;2024-03-22T01:27:15;101403.66;;;12.93;84.32
10460;BME280;54412;51.206;6.888;2024-03-22T01:29:41;101390.25;;;12.96;84.09
10460;BME280;54412;51.206;6.888;2024-03-22T01:32:07;101395.47;;;12.97;84.58
10460;BME280;54412;51.206;6.888;2024-03-22T01:34:33;101392.72;;;13.00;84.11
10460;BME280;54412;51.206;6.888;2024-03-22T01:37:00;101389.78;;;12.88;84.67
10460;BME280;54412;51.206;6.888;2024-03-22T01:39:26;101383.25;;;12.95;84.19
10460;BME280;54412;51.206;6.888;2024-03-22T01:41:52;101380.28;;;13.01;84.07
10460;BME280;54412;51.206;6.888;2024-03-22T01:44:17;101376.47;;;12.89;84.67
10460;BME280;54412;51.206;6.888;2024-03-22T01:46:44;101371.31;;;13.05;83.49
10460;BME280;54412;51.206;6.888;2024-03-22T01:49:15;101375.31;;;12.95;83.88
10460;BME280;54412;51.206;6.888;2024-03-22T01:51:42;101363.38;;;12.86;84.75
10460;BME280;54412;51.206;6.888;2024-03-22T01:54:09;101364.38;;;12.84;84.88
10460;BME280;54412;51.206;6.888;2024-03-22T01:56:39;101360.06;;;12.81;85.01
10460;BME280;54412;51.206;6.888;2024-03-22T01:59:06;101358.63;;;12.93;84.44
10460;BME280;54412;51.206;6.888;2024-03-22T02:01:33;101355.28;;;12.89;84.59
10460;BME280;54412;51.206;6.888;2024-03-22T02:03:59;101350.63;;;12.94;83.90
10460;BME280;54412;51.206;6.888;2024-03-22T02:06:24;101348.97;;;12.92;84.23
10460;BME280;54412;51.206;6.888;2024-03-22T02:08:50;101346.56;;;12.87;84.02
10460;BME280;54412;51.206;6.888;2024-03-22T02:11:16;101342.13;;;12.88;84.56
10460;BME280;54412;51.206;6.888;2024-03-22T02:13:42;101338.19;;;12.78;85.21
10460;BME280;54412;51.206;6.888;2024-03-22T02:16:11;101332.38;;;12.88;84.39
10460;BME280;54412;51.206;6.888;2024-03-22T02:18:36;101330.75;;;12.86;84.61
10460;BME280;54412;51.206;6.888;2024-03-22T02:21:02;101323.09;;;12.80;84.89
10460;BME280;54412;51.206;6.888;2024-03-22T02:23:36;101315.50;;;12.91;84.04
10460;BME280;54412;51.206;6.888;2024-03-22T02:26:03;101315.06;;;12.81;84.80
10460;BME280;54412;51.206;6.888;2024-03-22T02:28:31;101310.28;;;12.89;84.53
10460;BME280;54412;51.206;6.888;2024-03-22T02:30:58;101308.50;;;12.71;85.25
10460;BME280;54412;51.206;6.888;2024-03-22T02:33:24;101300.84;;;12.65;86.27
10460;BME280;54412;51.206;6.888;2024-03-22T02:35:50;101304.19;;;12.87;84.58
10460;BME280;54412;51.206;6.888;2024-03-22T02:38:17;101307.09;;;13.00;84.35
10460;BME280;54412;51.206;6.888;2024-03-22T02:40:48;101301.47;;;12.89;84.75
10460;BME280;54412;51.206;6.888;2024-03-22T02:43:14;101289.09;;;12.89;84.80
10460;BME280;54412;51.206;6.888;2024-03-22T02:45:40;101296.88;;;13.11;84.14
10460;BME280;54412;51.206;6.888;2024-03-22T02:48:06;101293.34;;;12.92;85.12
10460;BME280;54412;51.206;6.888;2024-03-22T02:50:39;101291.41;;;12.78;85.31
10460;BME280;54412;51.206;6.888;2024-03-22T02:53:05;101292.06;;;13.00;84.76
10460;BME280;54412;51.206;6.888;2024-03-22T02:55:40;101294.47;;;12.88;85.09
10460;BME280;54412;51.206;6.888;2024-03-22T02:58:09;101284.00;;;12.85;85.49
10460;BME280;54412;51.206;6.888;2024-03-22T03:00:38;101280.78;;;12.97;85.25
10460;BME280;54412;51.206;6.888;2024-03-22T03:03:07;101284.00;;;12.85;85.94
10460;BME280;54412;51.206;6.888;2024-03-22T03:05:33;101286.31;;;12.74;86.48
10460;BME280;54412;51.206;6.888;2024-03-22T03:08:00;101277.94;;;12.83;86.01
10460;BME280;54412;51.206;6.888;2024-03-22T03:10:26;101274.63;;;12.60;86.80
10460;BME280;54412;51.206;6.888;2024-03-22T03:12:54;101269.97;;;12.83;86.13
10460;BME280;54412;51.206;6.888;2024-03-22T03:15:20;101263.50;;;12.71;86.69
10460;BME280;54412;51.206;6.888;2024-03-22T03:17:45;101257.00;;;12.78;86.23
10460;BME280;54412;51.206;6.888;2024-03-22T03:20:11;101250.63;;;12.99;84.95
10460;BME280;54412;51.206;6.888;2024-03-22T03:22:39;101245.31;;;12.82;86.03
10460;BME280;54412;51.206;6.888;2024-03-22T03:25:06;101249.47;;;12.88;85.69
10460;BME280;54412;51.206;6.888;2024-03-22T03:27:33;101253.25;;;12.82;85.70
10460;BME280;54412;51.206;6.888;2024-03-22T03:29:58;101253.59;;;12.93;85.07
10460;BME280;54412;51.206;6.888;2024-03-22T03:32:24;101245.56;;;12.95;84.90
10460;BME280;54412;51.206;6.888;2024-03-22T03:34:52;101238.75;;;12.72;85.95
10460;BME280;54412;51.206;6.888;2024-03-22T03:37:18;101243.41;;;12.67;86.55
10460;BME280;54412;51.206;6.888;2024-03-22T03:39:43;101240.47;;;12.73;86.15
10460;BME280;54412;51.206;6.888;2024-03-22T03:42:10;101239.53;;;12.74;85.91
10460;BME280;54412;51.206;6.888;2024-03-22T03:44:35;101240.81;;;12.84;85.60
10460;BME280;54412;51.206;6.888;2024-03-22T03:47:02;101241.06;;;12.97;84.61
10460;BME280;54412;51.206;6.888;2024-03-22T03:49:28;101235.28;;;12.89;85.35
10460;BME280;54412;51.206;6.888;2024-03-22T03:51:53;101228.03;;;12.75;86.42
10460;BME280;54412;51.206;6.888;2024-03-22T03:54:19;101226.66;;;12.67;86.81
10460;BME280;54412;51.206;6.888;2024-03-22T03:56:45;101224.81;;;12.69;86.57
10460;BME280;54412;51.206;6.888;2024-03-22T03:59:10;101228.28;;;12.88;85.61
10460;BME280;54412;51.206;6.888;2024-03-22T04:01:36;101220.38;;;12.69;86.15
10460;BME280;54412;51.206;6.888;2024-03-22T04:04:03;101216.75;;;12.72;85.98
10460;BME280;54412;51.206;6.888;2024-03-22T04:06:29;101218.53;;;12.71;86.38
10460;BME280;54412;51.206;6.888;2024-03-22T04:08:55;101209.09;;;12.66;86.64
10460;BME280;54412;51.206;6.888;2024-03-22T04:11:20;101200.53;;;12.78;86.26
10460;BME280;54412;51.206;6.888;2024-03-22T04:13:46;101192.28;;;12.84;85.66
10460;BME280;54412;51.206;6.888;2024-03-22T04:16:13;101184.31;;;12.49;87.78
10460;BME280;54412;51.206;6.888;2024-03-22T04:18:39;101191.31;;;12.50;87.65
10460;BME280;54412;51.206;6.888;2024-03-22T04:21:04;101186.25;;;12.46;88.04
10460;BME280;54412;51.206;6.888;2024-03-22T04:23:30;101191.38;;;12.32;88.77
10460;BME280;54412;51.206;6.888;2024-03-22T04:25:58;101185.94;;;12.52;87.88
10460;BME280;54412;51.206;6.888;2024-03-22T04:28:25;101187.25;;;12.43;88.16
10460;BME280;54412;51.206;6.888;2024-03-22T04:31:09;101189.59;;;12.49;87.65
10460;BME280;54412;51.206;6.888;2024-03-22T04:33:37;101176.47;;;12.48;87.73
10460;BME280;54412;51.206;6.888;2024-03-22T04:36:04;101170.13;;;12.50;87.27
10460;BME280;54412;51.206;6.888;2024-03-22T04:38:30;101166.22;;;12.59;87.15
10460;BME280;54412;51.206;6.888;2024-03-22T04:40:57;101169.41;;;12.66;86.63
10460;BME280;54412;51.206;6.888;2024-03-22T04:43:26;101167.13;;;12.58;86.99
10460;BME280;54412;51.206;6.888;2024-03-22T04:45:52;101161.38;;;12.50;87.47
10460;BME280;54412;51.206;6.888;2024-03-22T04:48:22;101153.03;;;12.22;89.09
10460;BME280;54412;51.206;6.888;2024-03-22T04:50:52;101148.19;;;12.48;87.99
10460;BME280;54412;51.206;6.888;2024-03-22T04:53:20;101144.00;;;12.61;87.40
10460;BME280;54412;51.206;6.888;2024-03-22T04:55:50;101149.38;;;12.60;87.43
10460;BME280;54412;51.206;6.888;2024-03-22T04:58:20;101140.19;;;12.50;87.69
10460;BME280;54412;51.206;6.888;2024-03-22T05:00:56;101135.75;;;12.33;88.48
10460;BME280;54412;51.206;6.888;2024-03-22T05:03:22;101142.91;;;12.48;87.67
10460;BME280;54412;51.206;6.888;2024-03-22T05:05:50;101140.13;;;12.51;88.06
10460;BME280;54412;51.206;6.888;2024-03-22T05:08:16;101138.88;;;12.58;87.94
10460;BME280;54412;51.206;6.888;2024-03-22T05:10:41;101141.91;;;12.85;87.81
10460;BME280;54412;51.206;6.888;2024-03-22T05:13:07;101142.38;;;12.59;88.04
10460;BME280;54412;51.206;6.888;2024-03-22T05:15:33;101138.34;;;12.86;87.57
10460;BME280;54412;51.206;6.888;2024-03-22T05:17:59;101138.59;;;12.65;87.33
10460;BME280;54412;51.206;6.888;2024-03-22T05:20:26;101129.94;;;12.78;87.43
10460;BME280;54412;51.206;6.888;2024-03-22T05:22:52;101131.84;;;12.92;87.02
10460;BME280;54412;51.206;6.888;2024-03-22T05:25:18;101137.22;;;12.56;87.80
10460;BME280;54412;51.206;6.888;2024-03-22T05:27:45;101129.63;;;12.84;87.00
10460;BME280;54412;51.206;6.888;2024-03-22T05:30:12;101134.69;;;12.72;87.36
10460;BME280;54412;51.206;6.888;2024-03-22T05:32:39;101125.81;;;12.90;86.42
10460;BME280;54412;51.206;6.888;2024-03-22T05:35:06;101123.47;;;12.84;86.86
10460;BME280;54412;51.206;6.888;2024-03-22T05:37:33;101124.84;;;13.25;85.20
10460;BME280;54412;51.206;6.888;2024-03-22T05:40:00;101134.59;;;12.90;86.27
10460;BME280;54412;51.206;6.888;2024-03-22T05:42:26;101137.94;;;12.77;87.24
10460;BME280;54412;51.206;6.888;2024-03-22T05:44:52;101122.75;;;12.97;86.27
10460;BME280;54412;51.206;6.888;2024-03-22T05:47:19;101128.06;;;12.80;86.90
10460;BME280;54412;51.206;6.888;2024-03-22T05:49:45;101136.78;;;12.82;87.12
10460;BME280;54412;51.206;6.888;2024-03-22T05:52:11;101133.06;;;12.86;86.81
10460;BME280;54412;51.206;6.888;2024-03-22T05:54:37;101123.91;;;12.92;87.07
10460;BME280;54412;51.206;6.888;2024-03-22T05:57:04;101119.31;;;12.95;86.94
10460;BME280;54412;51.206;6.888;2024-03-22T05:59:33;101119.94;;;12.83;86.89
10460;BME280;54412;51.206;6.888;2024-03-22T06:01:59;101123.41;;;12.68;87.87
10460;BME280;54412;51.206;6.888;2024-03-22T06:04:25;101112.88;;;12.84;87.48
10460;BME280;54412;51.206;6.888;2024-03-22T06:06:51;101120.66;;;12.87;86.85
10460;BME280;54412;51.206;6.888;2024-03-22T06:09:16;101124.56;;;12.80;87.35
10460;BME280;54412;51.206;6.888;2024-03-22T06:11:50;101124.72;;;12.77;87.36
10460;BME280;54412;51.206;6.888;2024-03-22T06:14:17;101128.47;;;12.90;86.83
10460;BME280;54412;51.206;6.888;2024-03-22T06:16:42;101132.31;;;12.83;87.13
10460;BME280;54412;51.206;6.888;2024-03-22T06:19:08;101127.59;;;12.89;87.02
10460;BME280;54412;51.206;6.888;2024-03-22T06:21:34;101118.16;;;12.84;87.41
10460;BME280;54412;51.206;6.888;2024-03-22T06:23:59;101116.75;;;12.94;87.17
10460;BME280;54412;51.206;6.888;2024-03-22T06:26:25;101107.34;;;13.05;86.16
10460;BME280;54412;51.206;6.888;2024-03-22T06:28:51;101106.50;;;13.05;86.47
10460;BME280;54412;51.206;6.888;2024-03-22T06:31:16;101109.59;;;12.96;86.64
10460;BME280;54412;51.206;6.888;2024-03-22T06:33:43;101094.97;;;13.06;86.60
10460;BME280;54412;51.206;6.888;2024-03-22T06:36:08;101096.59;;;13.08;86.86
10460;BME280;54412;51.206;6.888;2024-03-22T06:38:34;101091.34;;;13.24;86.36
10460;BME280;54412;51.206;6.888;2024-03-22T06:41:00;101092.84;;;13.12;86.75
10460;BME280;54412;51.206;6.888;2024-03-22T06:43:26;101087.63;;;13.11;87.14
10460;BME280;54412;51.206;6.888;2024-03-22T06:45:51;101083.13;;;13.13;86.94
10460;BME280;54412;51.206;6.888;2024-03-22T06:48:17;101080.28;;;13.48;85.59
10460;BME280;54412;51.206;6.888;2024-03-22T06:50:43;101092.25;;;13.40;86.21
10460;BME280;54412;51.206;6.888;2024-03-22T06:53:08;101087.69;;;13.42;86.20
10460;BME280;54412;51.206;6.888;2024-03-22T06:55:37;101087.44;;;13.46;86.27
10460;BME280;54412;51.206;6.888;2024-03-22T06:58:03;101090.50;;;13.39;86.43
10460;BME280;54412;51.206;6.888;2024-03-22T07:00:28;101078.50;;;13.49;85.76
10460;BME280;54412;51.206;6.888;2024-03-22T07:02:54;101083.44;;;13.39;86.77
10460;BME280;54412;51.206;6.888;2024-03-22T07:05:25;101075.16;;;13.45;86.66
10460;BME280;54412;51.206;6.888;2024-03-22T07:07:51;101072.41;;;13.47;87.27
10460;BME280;54412;51.206;6.888;2024-03-22T07:10:21;101069.75;;;13.47;87.18
10460;BME280;54412;51.206;6.888;2024-03-22T07:12:48;101065.81;;;13.70;86.32
10460;BME280;54412;51.206;6.888;2024-03-22T07:15:14;101069.00;;;13.76;86.53
10460;BME280;54412;51.206;6.888;2024-03-22T07:17:39;101070.94;;;13.57;87.32
10460;BME280;54412;51.206;6.888;2024-03-22T07:20:06;101072.75;;;13.72;87.07
10460;BME280;54412;51.206;6.888;2024-03-22T07:22:32;101065.47;;;13.60;87.52
10460;BME280;54412;51.206;6.888;2024-03-22T07:24:58;101068.66;;;13.67;87.55
10460;BME280;54412;51.206;6.888;2024-03-22T07:27:24;101058.91;;;13.83;87.41
10460;BME280;54412;51.206;6.888;2024-03-22T07:29:54;101072.06;;;13.84;87.64
10460;BME280;54412;51.206;6.888;2024-03-22T07:32:20;101060.84;;;13.95;87.94
10460;BME280;54412;51.206;6.888;2024-03-22T07:34:46;101057.19;;;13.97;88.45
10460;BME280;54412;51.206;6.888;2024-03-22T07:37:12;101061.91;;;13.92;88.53
10460;BME280;54412;51.206;6.888;2024-03-22T07:39:38;101069.53;;;14.12;88.41
10460;BME280;54412;51.206;6.888;2024-03-22T07:42:03;101068.75;;;14.41;87.28
10460;BME280;54412;51.206;6.888;2024-03-22T07:44:29;101067.56;;;14.61;86.63
10460;BME280;54412;51.206;6.888;2024-03-22T07:46:55;101066.13;;;14.55;86.29
10460;BME280;54412;51.206;6.888;2024-03-22T07:49:20;101059.03;;;14.70;86.57
10460;BME280;54412;51.206;6.888;2024-03-22T07:51:46;101058.88;;;14.73;85.48
10460;BME280;54412;51.206;6.888;2024-03-22T07:54:12;101058.78;;;14.75;85.00
10460;BME280;54412;51.206;6.888;2024-03-22T07:56:37;101058.22;;;14.84;85.07
10460;BME280;54412;51.206;6.888;2024-03-22T07:59:03;101060.59;;;14.88;83.88
10460;BME280;54412;51.206;6.888;2024-03-22T08:01:28;101056.72;;;14.94;84.49
10460;BME280;54412;51.206;6.888;2024-03-22T08:03:54;101049.41;;;14.83;84.73
10460;BME280;54412;51.206;6.888;2024-03-22T08:06:20;101039.81;;;14.81;84.86
10460;BME280;54412;51.206;6.888;2024-03-22T08:08:46;101052.16;;;15.10;84.37
10460;BME280;54412;51.206;6.888;2024-03-22T08:11:11;101042.09;;;15.01;84.14
10460;BME280;54412;51.206;6.888;2024-03-22T08:13:37;101040.78;;;14.80;83.45
10460;BME280;54412;51.206;6.888;2024-03-22T08:16:05;101039.84;;;14.95;82.92
10460;BME280;54412;51.206;6.888;2024-03-22T08:18:32;101039.38;;;15.16;82.21
10460;BME280;54412;51.206;6.888;2024-03-22T08:20:59;101034.44;;;14.96;82.73
10460;BME280;54412;51.206;6.888;2024-03-22T08:23:25;101051.69;;;15.17;82.18
10460;BME280;54412;51.206;6.888;2024-03-22T08:25:50;101048.94;;;15.05;81.61
10460;BME280;54412;51.206;6.888;2024-03-22T08:28:16;101046.28;;;14.91;82.28
10460;BME280;54412;51.206;6.888;2024-03-22T08:30:43;101041.09;;;14.45;83.26
10460;BME280;54412;51.206;6.888;2024-03-22T08:33:11;101039.38;;;14.44;83.68
10460;BME280;54412;51.206;6.888;2024-03-22T08:35:37;101042.19;;;14.71;83.16
10460;BME280;54412;51.206;6.888;2024-03-22T08:38:04;101041.22;;;14.72;83.09
10460;BME280;54412;51.206;6.888;2024-03-22T08:40:30;101047.09;;;14.77;82.64
10460;BME280;54412;51.206;6.888;2024-03-22T08:42:56;101036.88;;;14.85;82.32
10460;BME280;54412;51.206;6.888;2024-03-22T08:45:22;101028.25;;;14.96;82.23
10460;BME280;54412;51.206;6.888;2024-03-22T08:47:47;101038.41;;;15.17;81.25
10460;BME280;54412;51.206;6.888;2024-03-22T08:50:13;101035.09;;;15.14;80.30
10460;BME280;54412;51.206;6.888;2024-03-22T08:52:40;101041.94;;;15.18;80.34
10460;BME280;54412;51.206;6.888;2024-03-22T08:55:05;101044.03;;;15.13;79.79
10460;BME280;54412;51.206;6.888;2024-03-22T08:57:33;101043.69;;;15.31;78.70
10460;BME280;54412;51.206;6.888;2024-03-22T08:59:58;101028.72;;;15.44;78.13
10460;BME280;54412;51.206;6.888;2024-03-22T09:02:24;101030.34;;;15.47;77.10
10460;BME280;54412;51.206;6.888;2024-03-22T09:04:50;101026.72;;;15.48;77.86
10460;BME280;54412;51.206;6.888;2024-03-22T09:07:16;101027.66;;;15.33;77.71
10460;BME280;54412;51.206;6.888;2024-03-22T09:09:42;101028.06;;;15.41;77.01
10460;BME280;54412;51.206;6.888;2024-03-22T09:12:08;101023.59;;;14.99;78.54
10460;BME280;54412;51.206;6.888;2024-03-22T09:14:34;101027.78;;;15.17;78.57
10460;BME280;54412;51.206;6.888;2024-03-22T09:17:00;101019.50;;;15.36;76.97
10460;BME280;54412;51.206;6.888;2024-03-22T09:19:25;101012.47;;;15.35;76.90
10460;BME280;54412;51.206;6.888;2024-03-22T09:21:51;101018.38;;;15.54;76.75
10460;BME280;54412;51.206;6.888;2024-03-22T09:24:16;101004.69;;;15.46;77.00
10460;BME280;54412;51.206;6.888;2024-03-22T09:26:42;101016.66;;;15.39;76.76
10460;BME280;54412;51.206;6.888;2024-03-22T09:29:08;101016.88;;;15.08;77.33
10460;BME280;54412;51.206;6.888;2024-03-22T09:31:34;101016.88;;;15.22;77.48
10460;BME280;54412;51.206;6.888;2024-03-22T09:34:00;101012.75;;;15.58;76.52
10460;BME280;54412;51.206;6.888;2024-03-22T09:36:25;101008.72;;;16.19;73.90
10460;BME280;54412;51.206;6.888;2024-03-22T09:38:51;101003.06;;;16.75;72.97
10460;BME280;54412;51.206;6.888;2024-03-22T09:41:24;101001.25;;;16.50;71.76
10460;BME280;54412;51.206;6.888;2024-03-22T09:43:51;101000.75;;;16.19;72.11
10460;BME280;54412;51.206;6.888;2024-03-22T09:46:19;100997.19;;;16.70;71.35
10460;BME280;54412;51.206;6.888;2024-03-22T09:48:47;100995.81;;;16.64;70.31
10460;BME280;54412;51.206;6.888;2024-03-22T09:51:16;100991.75;;;16.84;69.55
10460;BME280;54412;51.206;6.888;2024-03-22T09:53:44;100991.75;;;16.59;69.24
10460;BME280;54412;51.206;6.888;2024-03-22T09:56:14;100996.66;;;16.65;69.16
10460;BME280;54412;51.206;6.888;2024-03-22T09:58:44;100989.69;;;16.37;69.84
10460;BME280;54412;51.206;6.888;2024-03-22T10:01:12;100988.91;;;16.49;69.43
10460;BME280;54412;51.206;6.888;2024-03-22T10:03:38;100984.56;;;16.22;69.04
10460;BME280;54412;51.206;6.888;2024-03-22T10:06:04;100991.16;;;16.29;68.98
10460;BME280;54412;51.206;6.888;2024-03-22T10:08:30;100978.28;;;15.84;70.25
10460;BME280;54412;51.206;6.888;2024-03-22T10:10:56;100972.34;;;15.93;70.60
10460;BME280;54412;51.206;6.888;2024-03-22T10:13:21;100975.97;;;15.92;69.53
10460;BME280;54412;51.206;6.888;2024-03-22T10:15:47;100990.31;;;15.89;68.84
10460;BME280;54412;51.206;6.888;2024-03-22T10:18:15;100974.13;;;15.92;67.68
10460;BME280;54412;51.206;6.888;2024-03-22T10:20:41;100982.56;;;15.59;68.34
10460;BME280;54412;51.206;6.888;2024-03-22T10:23:08;100965.97;;;15.56;69.50
10460;BME280;54412;51.206;6.888;2024-03-22T10:25:34;100967.44;;;15.60;69.35
10460;BME280;54412;51.206;6.888;2024-03-22T10:28:01;100976.97;;;15.77;67.45
10460;BME280;54412;51.206;6.888;2024-03-22T10:30:29;100975.25;;;15.35;68.62
10460;BME280;54412;51.206;6.888;2024-03-22T10:32:56;100966.63;;;15.31;68.85
10460;BME280;54412;51.206;6.888;2024-03-22T10:35:24;100958.47;;;15.34;69.40
10460;BME280;54412;51.206;6.888;2024-03-22T10:37:50;100960.81;;;15.39;69.85
10460;BME280;54412;51.206;6.888;2024-03-22T10:40:17;100963.47;;;15.53;69.82
10460;BME280;54412;51.206;6.888;2024-03-22T10:42:44;100946.44;;;15.69;70.06
10460;BME280;54412;51.206;6.888;2024-03-22T10:45:12;100955.31;;;15.56;69.27
10460;BME280;54412;51.206;6.888;2024-03-22T10:47:38;100952.66;;;15.56;69.07
10460;BME280;54412;51.206;6.888;2024-03-22T10:53:02;100940.63;;;15.50;69.92
10460;BME280;54412;51.206;6.888;2024-03-22T10:55:35;100933.19;;;15.55;70.12
10460;BME280;54412;51.206;6.888;2024-03-22T10:58:02;100922.50;;;15.69;70.60
10460;BME280;54412;51.206;6.888;2024-03-22T11:00:29;100934.94;;;15.42;70.21
10460;BME280;54412;51.206;6.888;2024-03-22T11:02:56;100916.75;;;15.63;69.57
10460;BME280;54412;51.206;6.888;2024-03-22T11:05:22;100908.94;;;15.60;69.15
10460;BME280;54412;51.206;6.888;2024-03-22T11:07:57;100912.59;;;15.72;69.48
10460;BME280;54412;51.206;6.888;2024-03-22T11:10:29;100908.16;;;15.72;67.65
10460;BME280;54412;51.206;6.888;2024-03-22T11:13:01;100915.28;;;15.84;67.83
10460;BME280;54412;51.206;6.888;2024-03-22T11:15:29;100915.25;;;15.72;67.44
10460;BME280;54412;51.206;6.888;2024-03-22T11:17:56;100900.28;;;15.83;66.22
10460;BME280;54412;51.206;6.888;2024-03-22T11:20:22;100898.31;;;15.60;66.79
10460;BME280;54412;51.206;6.888;2024-03-22T11:22:47;100895.34;;;15.64;67.42
10460;BME280;54412;51.206;6.888;2024-03-22T11:25:13;100899.72;;;15.65;68.23
10460;BME280;54412;51.206;6.888;2024-03-22T11:27:39;100893.88;;;15.73;69.08
10460;BME280;54412;51.206;6.888;2024-03-22T11:30:05;100894.97;;;15.83;69.35
10460;BME280;54412;51.206;6.888;2024-03-22T11:32:33;100899.41;;;15.70;69.04
10460;BME280;54412;51.206;6.888;2024-03-22T11:35:00;100880.09;;;15.41;69.75
10460;BME280;54412;51.206;6.888;2024-03-22T11:37:26;100881.03;;;15.40;70.40
10460;BME280;54412;51.206;6.888;2024-03-22T11:39:52;100885.94;;;15.46;69.75
10460;BME280;54412;51.206;6.888;2024-03-22T11:42:18;100897.88;;;15.53;68.43
10460;BME280;54412;51.206;6.888;2024-03-22T11:44:44;100893.44;;;15.66;68.21
10460;BME280;54412;51.206;6.888;2024-03-22T11:47:10;100887.09;;;15.42;69.60
10460;BME280;54412;51.206;6.888;2024-03-22T11:49:36;100889.81;;;15.67;70.34
10460;BME280;54412;51.206;6.888;2024-03-22T11:52:02;100873.91;;;15.93;69.12
10460;BME280;54412;51.206;6.888;2024-03-22T11:54:28;100885.34;;;16.32;67.62
10460;BME280;54412;51.206;6.888;2024-03-22T11:56:56;100885.66;;;16.65;66.30
10460;BME280;54412;51.206;6.888;2024-03-22T11:59:22;100883.72;;;16.80;65.56
10460;BME280;54412;51.206;6.888;2024-03-22T12:01:48;100882.44;;;16.35;66.12
10460;BME280;54412;51.206;6.888;2024-03-22T12:04:14;100892.03;;;16.38;63.53
10460;BME280;54412;51.206;6.888;2024-03-22T12:06:46;100887.25;;;16.30;64.47
10460;BME280;54412;51.206;6.888;2024-03-22T12:09:12;100870.00;;;16.61;64.27
10460;BME280;54412;51.206;6.888;2024-03-22T12:11:39;100877.97;;;16.73;62.96
10460;BME280;54412;51.206;6.888;2024-03-22T12:14:05;100882.13;;;16.40;64.40
10460;BME280;54412;51.206;6.888;2024-03-22T12:16:31;100879.09;;;16.58;64.41
10460;BME280;54412;51.206;6.888;2024-03-22T12:18:57;100882.88;;;16.17;66.19
10460;BME280;54412;51.206;6.888;2024-03-22T12:21:24;100878.84;;;15.99;66.71
10460;BME280;54412;51.206;6.888;2024-03-22T12:23:50;100867.31;;;15.98;66.81
10460;BME280;54412;51.206;6.888;2024-03-22T12:26:15;100866.47;;;15.98;66.56
10460;BME280;54412;51.206;6.888;2024-03-22T12:28:41;100856.16;;;15.93;66.77
10460;BME280;54412;51.206;6.888;2024-03-22T12:31:09;100859.78;;;16.17;66.75
10460;BME280;54412;51.206;6.888;2024-03-22T12:33:36;100862.13;;;16.09;67.23
10460;BME280;54412;51.206;6.888;2024-03-22T12:36:03;100848.72;;;16.11;67.48
10460;BME280;54412;51.206;6.888;2024-03-22T12:38:29;100837.94;;;16.25;67.78
10460;BME280;54412;51.206;6.888;2024-03-22T12:40:55;100845.63;;;16.17;68.35
10460;BME280;54412;51.206;6.888;2024-03-22T12:43:20;100829.66;;;16.29;68.18
10460;BME280;54412;51.206;6.888;2024-03-22T12:45:46;100838.06;;;16.23;68.33
10460;BME280;54412;51.206;6.888;2024-03-22T12:48:12;100828.81;;;16.16;68.83
10460;BME280;54412;51.206;6.888;2024-03-22T12:50:38;100824.13;;;16.20;68.78